BWA711 TGPY-TBPB
Flight info
| Callsign | BWA711 |
|---|---|
| Flight time | 0h 42m |
| Altitude | 11000 |
| Route | GND A561 BGI |
| Aircraft | AT76/M-SDFGHIRWY/LB1 |
Departure
| Time | 2026-04-22 18:34 |
|---|---|
| Airport | Maurice Bishop International Airport (TGPY) |
Arrival
| Time | 2026-04-22 19:17 |
|---|---|
| Airport | Grantley Adams International Airport (TBPB) |
| Time | Latitude | Longitude | Altitude | Speed | Heading |
|---|---|---|---|---|---|
| 2026-04-22 18:00 | 12.00647 | -61.78554 | 25 ft | 0 kts | 185° |
| 2026-04-22 18:28 | 12.00646 | -61.78555 | 53 ft | 1 kts | 184° |
| 2026-04-22 18:28 | 12.00627 | -61.78556 | 25 ft | 4 kts | 185° |
| 2026-04-22 18:28 | 12.00600 | -61.78571 | 24 ft | 6 kts | 223° |
| 2026-04-22 18:29 | 12.00562 | -61.78600 | 25 ft | 7 kts | 196° |
| 2026-04-22 18:29 | 12.00521 | -61.78602 | 24 ft | 5 kts | 180° |
| 2026-04-22 18:29 | 12.00493 | -61.78602 | 26 ft | 3 kts | 180° |
| 2026-04-22 18:29 | 12.00492 | -61.78602 | 26 ft | 0 kts | 180° |
| 2026-04-22 18:30 | 12.00468 | -61.78602 | 24 ft | 4 kts | 179° |
| 2026-04-22 18:30 | 12.00433 | -61.78603 | 28 ft | 6 kts | 191° |
| 2026-04-22 18:31 | 12.00409 | -61.78659 | 26 ft | 14 kts | 270° |
| 2026-04-22 18:31 | 12.00409 | -61.78787 | 26 ft | 20 kts | 269° |
| 2026-04-22 18:31 | 12.00410 | -61.78941 | 25 ft | 23 kts | 270° |
| 2026-04-22 18:31 | 12.00409 | -61.79106 | 25 ft | 24 kts | 271° |
| 2026-04-22 18:32 | 12.00411 | -61.79276 | 22 ft | 24 kts | 270° |
| 2026-04-22 18:32 | 12.00413 | -61.79448 | 18 ft | 24 kts | 271° |
| 2026-04-22 18:32 | 12.00414 | -61.79618 | 15 ft | 24 kts | 270° |
| 2026-04-22 18:32 | 12.00429 | -61.79782 | 12 ft | 19 kts | 279° |
| 2026-04-22 18:33 | 12.00434 | -61.79856 | 11 ft | 8 kts | 250° |
| 2026-04-22 18:33 | 12.00410 | -61.79854 | 11 ft | 0 kts | 93° |
| 2026-04-22 18:33 | 12.00410 | -61.79853 | 11 ft | 0 kts | 86° |
| 2026-04-22 18:34 | 12.00413 | -61.79656 | 14 ft | 61 kts | 91° |
| 2026-04-22 18:34 | 12.00406 | -61.79013 | 27 ft | 117 kts | 89° |
| 2026-04-22 18:34 | 12.00416 | -61.78094 | 248 ft | 138 kts | 92° |
| 2026-04-22 18:34 | 12.00433 | -61.77080 | 657 ft | 147 kts | 89° |
| 2026-04-22 18:35 | 12.00472 | -61.76061 | 1257 ft | 142 kts | 84° |
| 2026-04-22 18:35 | 12.00562 | -61.75024 | 1671 ft | 157 kts | 82° |
| 2026-04-22 18:35 | 12.00742 | -61.73930 | 2251 ft | 158 kts | 76° |
| 2026-04-22 18:35 | 12.01087 | -61.72846 | 2782 ft | 162 kts | 63° |
| 2026-04-22 18:36 | 12.01697 | -61.71898 | 3331 ft | 165 kts | 50° |
| 2026-04-22 18:36 | 12.02570 | -61.71103 | 3806 ft | 172 kts | 37° |
| 2026-04-22 18:36 | 12.03560 | -61.70294 | 3991 ft | 191 kts | 49° |
| 2026-04-22 18:36 | 12.04387 | -61.69211 | 4428 ft | 194 kts | 56° |
| 2026-04-22 18:37 | 12.05107 | -61.68064 | 5006 ft | 188 kts | 60° |
| 2026-04-22 18:37 | 12.05732 | -61.66894 | 5521 ft | 188 kts | 63° |
| 2026-04-22 18:37 | 12.06309 | -61.65688 | 5993 ft | 190 kts | 65° |
| 2026-04-22 18:37 | 12.06870 | -61.64462 | 6429 ft | 192 kts | 65° |
| 2026-04-22 18:38 | 12.07445 | -61.63222 | 6837 ft | 194 kts | 64° |
| 2026-04-22 18:38 | 12.08033 | -61.61969 | 7171 ft | 198 kts | 64° |
| 2026-04-22 18:38 | 12.08632 | -61.60694 | 7468 ft | 199 kts | 64° |
| 2026-04-22 18:39 | 12.09843 | -61.58128 | 8050 ft | 202 kts | 64° |
| 2026-04-22 18:39 | 12.10457 | -61.56822 | 8302 ft | 206 kts | 63° |
| 2026-04-22 18:39 | 12.11073 | -61.55519 | 8618 ft | 205 kts | 63° |
| 2026-04-22 18:39 | 12.11696 | -61.54197 | 8912 ft | 206 kts | 64° |
| 2026-04-22 18:40 | 12.12321 | -61.52866 | 9193 ft | 208 kts | 63° |
| 2026-04-22 18:40 | 12.12956 | -61.51522 | 9444 ft | 211 kts | 64° |
| 2026-04-22 18:40 | 12.13592 | -61.50169 | 9739 ft | 212 kts | 63° |
| 2026-04-22 18:40 | 12.14230 | -61.48816 | 9979 ft | 213 kts | 64° |
| 2026-04-22 18:41 | 12.14873 | -61.47450 | 10232 ft | 214 kts | 63° |
| 2026-04-22 18:41 | 12.15520 | -61.46076 | 10487 ft | 215 kts | 64° |
| 2026-04-22 18:41 | 12.16169 | -61.44699 | 10749 ft | 215 kts | 64° |
| 2026-04-22 18:41 | 12.16820 | -61.43313 | 10976 ft | 217 kts | 63° |
| 2026-04-22 18:42 | 12.17477 | -61.41920 | 11215 ft | 218 kts | 64° |
| 2026-04-22 18:42 | 12.18133 | -61.40523 | 11460 ft | 218 kts | 63° |
| 2026-04-22 18:42 | 12.18793 | -61.39120 | 11689 ft | 219 kts | 63° |
| 2026-04-22 18:42 | 12.19456 | -61.37710 | 11915 ft | 220 kts | 64° |
| 2026-04-22 18:43 | 12.20099 | -61.36346 | 12144 ft | 221 kts | 64° |
| 2026-04-22 18:43 | 12.20777 | -61.34909 | 12382 ft | 222 kts | 64° |
| 2026-04-22 18:43 | 12.21449 | -61.33482 | 12592 ft | 224 kts | 63° |
| 2026-04-22 18:43 | 12.22126 | -61.32044 | 12692 ft | 231 kts | 64° |
| 2026-04-22 18:44 | 12.22830 | -61.30537 | 12738 ft | 239 kts | 64° |
| 2026-04-22 18:44 | 12.23554 | -61.28988 | 12760 ft | 244 kts | 64° |
| 2026-04-22 18:44 | 12.24298 | -61.27408 | 12769 ft | 249 kts | 64° |
| 2026-04-22 18:44 | 12.25057 | -61.25797 | 12776 ft | 256 kts | 63° |
| 2026-04-22 18:45 | 12.25847 | -61.24113 | 12776 ft | 269 kts | 64° |
| 2026-04-22 18:45 | 12.26662 | -61.22377 | 12779 ft | 270 kts | 64° |
| 2026-04-22 18:45 | 12.27473 | -61.20650 | 12780 ft | 269 kts | 64° |
| 2026-04-22 18:45 | 12.28283 | -61.18929 | 12770 ft | 268 kts | 64° |
| 2026-04-22 18:46 | 12.29088 | -61.17212 | 12778 ft | 267 kts | 64° |
| 2026-04-22 18:46 | 12.29892 | -61.15502 | 12778 ft | 267 kts | 64° |
| 2026-04-22 18:46 | 12.30693 | -61.13792 | 12775 ft | 266 kts | 64° |
| 2026-04-22 18:46 | 12.31494 | -61.12086 | 12770 ft | 266 kts | 64° |
| 2026-04-22 18:47 | 12.32294 | -61.10383 | 12778 ft | 266 kts | 64° |
| 2026-04-22 18:47 | 12.33092 | -61.08678 | 12770 ft | 265 kts | 64° |
| 2026-04-22 18:47 | 12.33890 | -61.06978 | 12776 ft | 265 kts | 64° |
| 2026-04-22 18:47 | 12.34687 | -61.05277 | 12779 ft | 265 kts | 64° |
| 2026-04-22 18:48 | 12.35483 | -61.03575 | 12772 ft | 265 kts | 64° |
| 2026-04-22 18:48 | 12.36280 | -61.01878 | 12777 ft | 265 kts | 63° |
| 2026-04-22 18:48 | 12.37076 | -61.00177 | 12775 ft | 265 kts | 64° |
| 2026-04-22 18:48 | 12.37875 | -60.98476 | 12779 ft | 265 kts | 64° |
| 2026-04-22 18:49 | 12.38670 | -60.96774 | 12777 ft | 265 kts | 64° |
| 2026-04-22 18:49 | 12.39469 | -60.95071 | 12771 ft | 266 kts | 64° |
| 2026-04-22 18:49 | 12.40267 | -60.93369 | 12774 ft | 265 kts | 64° |
| 2026-04-22 18:49 | 12.41062 | -60.91665 | 12772 ft | 266 kts | 64° |
| 2026-04-22 18:50 | 12.41851 | -60.89981 | 12781 ft | 266 kts | 64° |
| 2026-04-22 18:50 | 12.42651 | -60.88272 | 12770 ft | 266 kts | 64° |
| 2026-04-22 18:50 | 12.43449 | -60.86563 | 12780 ft | 266 kts | 64° |
| 2026-04-22 18:50 | 12.44249 | -60.84854 | 12770 ft | 266 kts | 64° |
| 2026-04-22 18:51 | 12.45046 | -60.83149 | 12772 ft | 266 kts | 64° |
| 2026-04-22 18:51 | 12.45845 | -60.81442 | 12770 ft | 266 kts | 64° |
| 2026-04-22 18:51 | 12.46646 | -60.79731 | 12776 ft | 266 kts | 64° |
| 2026-04-22 18:51 | 12.47440 | -60.78026 | 12775 ft | 265 kts | 64° |
| 2026-04-22 18:52 | 12.48235 | -60.76323 | 12778 ft | 265 kts | 64° |
| 2026-04-22 18:52 | 12.49031 | -60.74622 | 12780 ft | 265 kts | 64° |
| 2026-04-22 18:52 | 12.49823 | -60.72923 | 12775 ft | 265 kts | 64° |
| 2026-04-22 18:52 | 12.50609 | -60.71245 | 12786 ft | 264 kts | 63° |
| 2026-04-22 18:53 | 12.51401 | -60.69546 | 12783 ft | 265 kts | 64° |
| 2026-04-22 18:53 | 12.52193 | -60.67849 | 12776 ft | 265 kts | 63° |
| 2026-04-22 18:53 | 12.52987 | -60.66151 | 12771 ft | 265 kts | 64° |
| 2026-04-22 18:53 | 12.53780 | -60.64451 | 12772 ft | 265 kts | 63° |
| 2026-04-22 18:54 | 12.54572 | -60.62754 | 12770 ft | 265 kts | 63° |
| 2026-04-22 18:54 | 12.55365 | -60.61051 | 12770 ft | 265 kts | 64° |
| 2026-04-22 18:54 | 12.56158 | -60.59353 | 12771 ft | 265 kts | 64° |
| 2026-04-22 18:54 | 12.56952 | -60.57653 | 12776 ft | 265 kts | 63° |
| 2026-04-22 18:55 | 12.57747 | -60.55955 | 12776 ft | 265 kts | 63° |
| 2026-04-22 18:55 | 12.58538 | -60.54254 | 12782 ft | 265 kts | 64° |
| 2026-04-22 18:55 | 12.59324 | -60.52552 | 12784 ft | 265 kts | 64° |
| 2026-04-22 18:55 | 12.60117 | -60.50852 | 12768 ft | 265 kts | 64° |
| 2026-04-22 18:56 | 12.60911 | -60.49152 | 12781 ft | 264 kts | 64° |
| 2026-04-22 18:56 | 12.61701 | -60.47452 | 12774 ft | 264 kts | 64° |
| 2026-04-22 18:56 | 12.62492 | -60.45755 | 12770 ft | 264 kts | 63° |
| 2026-04-22 18:56 | 12.63285 | -60.44053 | 12769 ft | 265 kts | 63° |
| 2026-04-22 18:57 | 12.64075 | -60.42350 | 12772 ft | 265 kts | 64° |
| 2026-04-22 18:57 | 12.64866 | -60.40649 | 12765 ft | 265 kts | 64° |
| 2026-04-22 18:57 | 12.65658 | -60.38949 | 12767 ft | 265 kts | 64° |
| 2026-04-22 18:57 | 12.66449 | -60.37245 | 12772 ft | 265 kts | 64° |
| 2026-04-22 18:58 | 12.67242 | -60.35541 | 12776 ft | 265 kts | 63° |
| 2026-04-22 18:58 | 12.68062 | -60.33857 | 12780 ft | 264 kts | 59° |
| 2026-04-22 18:58 | 12.69033 | -60.32266 | 12784 ft | 263 kts | 56° |
| 2026-04-22 18:58 | 12.70032 | -60.30724 | 12772 ft | 263 kts | 54° |
| 2026-04-22 18:59 | 12.71060 | -60.29171 | 12768 ft | 263 kts | 54° |
| 2026-04-22 18:59 | 12.72094 | -60.27623 | 12777 ft | 263 kts | 54° |
| 2026-04-22 18:59 | 12.73131 | -60.26075 | 12772 ft | 263 kts | 54° |
| 2026-04-22 18:59 | 12.73884 | -60.24400 | 12779 ft | 260 kts | 78° |
| 2026-04-22 19:00 | 12.74216 | -60.22575 | 12783 ft | 262 kts | 79° |
| 2026-04-22 19:00 | 12.74583 | -60.20743 | 12773 ft | 263 kts | 77° |
| 2026-04-22 19:00 | 12.75041 | -60.18928 | 12776 ft | 264 kts | 72° |
| 2026-04-22 19:00 | 12.75665 | -60.17162 | 12774 ft | 264 kts | 66° |
| 2026-04-22 19:01 | 12.76437 | -60.15457 | 12785 ft | 264 kts | 63° |
| 2026-04-22 19:01 | 12.77262 | -60.13781 | 12776 ft | 264 kts | 62° |
| 2026-04-22 19:01 | 12.78088 | -60.12102 | 12770 ft | 264 kts | 62° |
| 2026-04-22 19:01 | 12.78898 | -60.10411 | 12782 ft | 265 kts | 63° |
| 2026-04-22 19:02 | 12.79691 | -60.08711 | 12779 ft | 265 kts | 64° |
| 2026-04-22 19:02 | 12.80482 | -60.07004 | 12773 ft | 265 kts | 63° |
| 2026-04-22 19:02 | 12.81273 | -60.05300 | 12780 ft | 265 kts | 63° |
| 2026-04-22 19:02 | 12.82062 | -60.03594 | 12782 ft | 265 kts | 64° |
| 2026-04-22 19:03 | 12.82851 | -60.01889 | 12802 ft | 264 kts | 63° |
| 2026-04-22 19:03 | 12.83633 | -60.00203 | 12900 ft | 260 kts | 63° |
| 2026-04-22 19:03 | 12.84406 | -59.98532 | 12942 ft | 260 kts | 64° |
| 2026-04-22 19:03 | 12.85179 | -59.96858 | 12961 ft | 257 kts | 64° |
| 2026-04-22 19:04 | 12.85920 | -59.95222 | 12658 ft | 253 kts | 64° |
| 2026-04-22 19:04 | 12.86652 | -59.93586 | 12291 ft | 252 kts | 64° |
| 2026-04-22 19:04 | 12.87407 | -59.91970 | 11924 ft | 250 kts | 59° |
| 2026-04-22 19:04 | 12.88375 | -59.90502 | 11529 ft | 249 kts | 52° |
| 2026-04-22 19:05 | 12.89411 | -59.89078 | 11100 ft | 245 kts | 52° |
| 2026-04-22 19:05 | 12.90393 | -59.87702 | 10581 ft | 234 kts | 53° |
| 2026-04-22 19:05 | 12.91302 | -59.86352 | 10054 ft | 228 kts | 55° |
| 2026-04-22 19:05 | 12.92171 | -59.85012 | 9469 ft | 224 kts | 55° |
| 2026-04-22 19:06 | 12.93027 | -59.83695 | 8859 ft | 220 kts | 56° |
| 2026-04-22 19:06 | 12.93870 | -59.82399 | 8266 ft | 217 kts | 56° |
| 2026-04-22 19:06 | 12.94704 | -59.81118 | 7690 ft | 215 kts | 57° |
| 2026-04-22 19:07 | 12.96319 | -59.78632 | 6654 ft | 205 kts | 57° |
| 2026-04-22 19:07 | 12.97095 | -59.77441 | 6224 ft | 197 kts | 58° |
| 2026-04-22 19:07 | 12.97842 | -59.76292 | 5772 ft | 191 kts | 57° |
| 2026-04-22 19:07 | 12.98567 | -59.75173 | 5337 ft | 186 kts | 57° |
| 2026-04-22 19:08 | 12.99277 | -59.74078 | 4902 ft | 183 kts | 57° |
| 2026-04-22 19:08 | 12.99979 | -59.73005 | 4459 ft | 180 kts | 57° |
| 2026-04-22 19:08 | 13.00661 | -59.71953 | 4077 ft | 174 kts | 57° |
| 2026-04-22 19:08 | 13.01339 | -59.70920 | 3712 ft | 175 kts | 56° |
| 2026-04-22 19:09 | 13.02017 | -59.69882 | 3363 ft | 175 kts | 57° |
| 2026-04-22 19:09 | 13.02693 | -59.68846 | 3001 ft | 172 kts | 57° |
| 2026-04-22 19:09 | 13.03005 | -59.68115 | 2743 ft | 168 kts | 76° |
| 2026-04-22 19:09 | 13.03316 | -59.66541 | 2298 ft | 171 kts | 78° |
| 2026-04-22 19:10 | 13.03566 | -59.65323 | 2132 ft | 176 kts | 78° |
| 2026-04-22 19:10 | 13.03829 | -59.64103 | 2044 ft | 172 kts | 77° |
| 2026-04-22 19:10 | 13.04073 | -59.62996 | 1991 ft | 149 kts | 77° |
| 2026-04-22 19:10 | 13.04308 | -59.62027 | 1959 ft | 131 kts | 76° |
| 2026-04-22 19:11 | 13.04514 | -59.61197 | 1950 ft | 114 kts | 76° |
| 2026-04-22 19:11 | 13.04726 | -59.60395 | 1952 ft | 119 kts | 76° |
| 2026-04-22 19:11 | 13.04946 | -59.59588 | 1818 ft | 117 kts | 68° |
| 2026-04-22 19:11 | 13.05579 | -59.59098 | 1651 ft | 127 kts | 21° |
| 2026-04-22 19:12 | 13.06530 | -59.58750 | 1603 ft | 155 kts | 22° |
| 2026-04-22 19:12 | 13.07564 | -59.58360 | 1801 ft | 162 kts | 21° |
| 2026-04-22 19:12 | 13.08688 | -59.58117 | 1883 ft | 173 kts | 356° |
| 2026-04-22 19:12 | 13.09756 | -59.58739 | 1901 ft | 188 kts | 310° |
| 2026-04-22 19:13 | 13.10128 | -59.60015 | 1917 ft | 194 kts | 265° |
| 2026-04-22 19:13 | 13.09551 | -59.61246 | 1971 ft | 198 kts | 223° |
| 2026-04-22 19:13 | 13.08310 | -59.61795 | 1960 ft | 194 kts | 180° |
| 2026-04-22 19:13 | 13.07097 | -59.61386 | 1948 ft | 182 kts | 138° |
| 2026-04-22 19:14 | 13.06417 | -59.60350 | 1956 ft | 172 kts | 117° |
| 2026-04-22 19:14 | 13.05991 | -59.59234 | 1939 ft | 166 kts | 94° |
| 2026-04-22 19:14 | 13.05965 | -59.58069 | 1965 ft | 163 kts | 91° |
| 2026-04-22 19:14 | 13.05919 | -59.56906 | 1954 ft | 158 kts | 90° |
| 2026-04-22 19:15 | 13.05933 | -59.56193 | 1861 ft | 147 kts | 86° |
| 2026-04-22 19:15 | 13.06100 | -59.54927 | 1358 ft | 127 kts | 79° |
| 2026-04-22 19:15 | 13.06291 | -59.54059 | 1022 ft | 120 kts | 77° |
| 2026-04-22 19:15 | 13.06491 | -59.53228 | 791 ft | 117 kts | 76° |
| 2026-04-22 19:16 | 13.06681 | -59.52430 | 623 ft | 111 kts | 76° |
| 2026-04-22 19:16 | 13.06857 | -59.51682 | 413 ft | 105 kts | 76° |
| 2026-04-22 19:16 | 13.07031 | -59.50970 | 257 ft | 101 kts | 75° |
| 2026-04-22 19:16 | 13.07196 | -59.50299 | 177 ft | 91 kts | 75° |
| 2026-04-22 19:17 | 13.07328 | -59.49762 | 173 ft | 62 kts | 75° |
| 2026-04-22 19:17 | 13.07405 | -59.49442 | 172 ft | 41 kts | 75° |
| 2026-04-22 19:17 | 13.07471 | -59.49183 | 172 ft | 34 kts | 76° |
| 2026-04-22 19:17 | 13.07520 | -59.49010 | 172 ft | 17 kts | 53° |
| 2026-04-22 19:18 | 13.07604 | -59.48986 | 173 ft | 11 kts | 343° |
| 2026-04-22 19:18 | 13.07673 | -59.48998 | 174 ft | 7 kts | 28° |
| 2026-04-22 19:18 | 13.07688 | -59.48966 | 174 ft | 4 kts | 76° |
| 2026-04-22 19:18 | 13.07696 | -59.48934 | 174 ft | 6 kts | 76° |
| 2026-04-22 19:19 | 13.07709 | -59.48878 | 174 ft | 10 kts | 76° |
| 2026-04-22 19:19 | 13.07742 | -59.48848 | 174 ft | 4 kts | 341° |
| 2026-04-22 19:19 | 13.07776 | -59.48857 | 174 ft | 7 kts | 346° |
| 2026-04-22 19:19 | 13.07841 | -59.48874 | 174 ft | 10 kts | 346° |
| 2026-04-22 19:20 | 13.07845 | -59.48875 | 174 ft | 0 kts | 346° |